Time;durP1;ratioP1;P1;durP2;ratioP2;P2;SDS_P1;SDS_P2;PMS_P1;PMS_P2;Temp;Humidity;BMP_temperature;BMP_pressure;BME280_temperature;BME280_humidity;BME280_pressure;Samples;Min_cycle;Max_cycle;Signal;HPM_P1;HPM_P2
2022/07/23 00:00:44;;;;;;;10.02;5.60;;;;;;;16.00;88.19;101857.69;4988014;28;20026;-87
2022/07/23 00:03:09;;;;;;;8.52;5.50;;;;;;;15.90;88.83;101856.22;4986924;28;20022;-87
2022/07/23 00:05:35;;;;;;;8.95;5.40;;;;;;;15.84;89.50;101851.19;4988255;28;20037;-87
2022/07/23 00:08:01;;;;;;;9.70;6.22;;;;;;;15.80;89.76;101855.66;4987761;28;20113;-87
2022/07/23 00:10:26;;;;;;;12.02;5.82;;;;;;;15.82;89.83;101853.00;4989489;28;20066;-86
2022/07/23 00:12:52;;;;;;;9.82;6.05;;;;;;;15.73;89.95;101843.66;4989141;28;20058;-86
2022/07/23 00:15:17;;;;;;;10.85;6.25;;;;;;;15.76;90.60;101855.81;4989090;28;20035;-86
2022/07/23 00:17:43;;;;;;;10.57;6.15;;;;;;;15.75;90.54;101856.72;4989446;28;20038;-87
2022/07/23 00:20:08;;;;;;;9.27;6.23;;;;;;;15.74;90.69;101855.84;4988645;28;20105;-87
2022/07/23 00:22:34;;;;;;;11.63;5.82;;;;;;;15.72;90.35;101856.78;4989218;28;20336;-87
2022/07/23 00:24:59;;;;;;;12.23;6.22;;;;;;;15.68;89.46;101857.78;4988407;28;20121;-87
2022/07/23 00:27:24;;;;;;;11.05;6.07;;;;;;;15.66;90.53;101854.34;4987804;28;20147;-86
2022/07/23 00:29:50;;;;;;;9.43;5.82;;;;;;;15.64;90.62;101850.91;4976259;28;20037;-86
2022/07/23 00:32:15;;;;;;;10.32;6.25;;;;;;;15.62;91.27;101850.97;4978580;28;20027;-87
2022/07/23 00:34:40;;;;;;;11.75;6.55;;;;;;;15.63;91.23;101849.19;4970431;28;20035;-87
2022/07/23 00:37:06;;;;;;;12.10;6.28;;;;;;;15.57;91.19;101847.63;4984691;28;20431;-87
2022/07/23 00:39:31;;;;;;;8.80;6.03;;;;;;;15.51;91.02;101846.91;4990106;28;20097;-86
2022/07/23 00:41:57;;;;;;;10.85;5.95;;;;;;;15.47;91.70;101843.53;4989218;28;20492;-87
2022/07/23 00:44:27;;;;;;;8.05;5.75;;;;;;;15.44;91.43;101846.22;4990038;28;20027;-87
2022/07/23 00:46:56;;;;;;;8.98;5.50;;;;;;;15.42;91.47;101842.81;4988103;28;20446;-87
2022/07/23 00:49:26;;;;;;;9.73;6.45;;;;;;;15.38;91.60;101842.03;4987598;28;20038;-87
2022/07/23 00:51:53;;;;;;;10.07;5.93;;;;;;;15.33;92.01;101850.88;4989264;28;20676;-87
2022/07/23 00:54:19;;;;;;;8.75;6.07;;;;;;;15.30;92.17;101840.50;4988873;28;20026;-87
2022/07/23 00:56:46;;;;;;;8.45;5.95;;;;;;;15.27;92.38;101845.84;4985433;28;20031;-87
2022/07/23 00:59:12;;;;;;;10.88;6.35;;;;;;;15.25;92.71;101850.22;4988200;28;20101;-87
2022/07/23 01:01:38;;;;;;;8.93;5.85;;;;;;;15.21;91.48;101849.47;4988842;28;20484;-87
2022/07/23 01:04:04;;;;;;;9.15;6.20;;;;;;;15.19;92.29;101853.00;4994193;28;20031;-87
2022/07/23 01:06:33;;;;;;;12.35;6.45;;;;;;;15.18;92.51;101846.06;4992329;28;20021;-87
2022/07/23 01:08:59;;;;;;;8.88;5.97;;;;;;;15.18;92.75;101853.91;4988617;28;20427;-87
2022/07/23 01:11:24;;;;;;;10.55;6.40;;;;;;;15.13;92.54;101850.56;4988847;28;20502;-87
2022/07/23 01:13:50;;;;;;;12.02;6.90;;;;;;;15.04;92.33;101841.22;4989772;28;20038;-87
2022/07/23 01:16:15;;;;;;;9.70;6.45;;;;;;;15.02;92.92;101841.25;4989736;28;20216;-87
2022/07/23 01:18:40;;;;;;;8.50;6.18;;;;;;;15.00;93.14;101831.75;4992016;28;20038;-86
2022/07/23 01:21:06;;;;;;;10.55;6.45;;;;;;;14.97;93.13;101831.81;4970221;28;20066;-87
2022/07/23 01:23:31;;;;;;;9.88;6.53;;;;;;;14.94;93.30;101837.13;4987870;28;20050;-87
2022/07/23 01:25:57;;;;;;;10.40;6.45;;;;;;;14.94;93.73;101843.19;4979709;28;20065;-86
2022/07/23 01:28:22;;;;;;;10.77;6.90;;;;;;;14.90;93.31;101833.72;4988321;28;20035;-89
2022/07/23 01:30:49;;;;;;;9.10;6.45;;;;;;;14.84;93.27;101838.25;4988406;28;20032;-88
2022/07/23 01:33:15;;;;;;;11.55;7.40;;;;;;;14.79;93.38;101837.53;4994735;28;20502;-88
2022/07/23 01:35:40;;;;;;;11.35;7.82;;;;;;;14.80;93.86;101839.25;4990678;28;20034;-88
2022/07/23 01:38:06;;;;;;;10.13;7.30;;;;;;;14.82;94.03;101835.69;4991302;28;20117;-88
2022/07/23 01:40:32;;;;;;;10.80;6.97;;;;;;;14.81;93.89;101835.72;4990598;28;20496;-88
2022/07/23 01:42:57;;;;;;;10.85;7.10;;;;;;;14.81;93.85;101830.50;4991078;28;20625;-88
2022/07/23 01:45:22;;;;;;;9.80;6.63;;;;;;;14.77;93.42;101828.88;4991709;28;20546;-88
2022/07/23 01:47:48;;;;;;;11.10;6.20;;;;;;;14.69;93.28;101829.06;4990934;28;20081;-88
2022/07/23 01:50:13;;;;;;;10.23;6.75;;;;;;;14.69;93.61;101836.03;4992644;28;20080;-88
2022/07/23 01:52:39;;;;;;;11.18;6.32;;;;;;;14.61;93.93;101823.16;4991933;28;20026;-88
2022/07/23 01:55:05;;;;;;;11.07;6.78;;;;;;;14.61;94.07;101829.25;4989749;28;20666;-89
2022/07/23 01:57:31;;;;;;;13.25;8.57;;;;;;;14.54;94.08;101830.28;4988521;28;20034;-88
2022/07/23 01:59:56;;;;;;;12.10;8.32;;;;;;;14.49;94.27;101826.94;4989115;28;20088;-87
2022/07/23 02:02:22;;;;;;;9.43;7.30;;;;;;;14.48;94.34;101830.44;4990657;28;20026;-87
2022/07/23 02:04:47;;;;;;;11.65;7.18;;;;;;;14.48;94.59;101834.78;4991607;28;20790;-87
2022/07/23 02:07:12;;;;;;;10.50;6.95;;;;;;;14.44;94.64;101833.16;4992364;28;20022;-88
2022/07/23 02:09:38;;;;;;;10.25;7.13;;;;;;;14.42;94.91;101837.53;4992710;28;20530;-87
2022/07/23 02:12:04;;;;;;;10.75;6.85;;;;;;;14.37;94.95;101831.56;4991536;28;20582;-87
2022/07/23 02:14:29;;;;;;;12.82;7.03;;;;;;;14.37;94.98;101824.59;4991300;28;20034;-87
2022/07/23 02:16:54;;;;;;;11.27;6.90;;;;;;;14.32;94.58;101812.56;4989907;28;20042;-87
2022/07/23 02:19:20;;;;;;;11.18;7.00;;;;;;;14.32;95.08;101810.81;5004416;28;20361;-87
2022/07/23 02:21:45;;;;;;;11.07;7.22;;;;;;;14.33;95.18;101819.50;5003505;28;20128;-87
2022/07/23 02:24:10;;;;;;;10.98;6.70;;;;;;;14.28;94.75;101822.19;4993377;28;20282;-87
2022/07/23 02:26:37;;;;;;;10.88;7.32;;;;;;;14.25;94.97;101824.88;4988614;28;20452;-87
2022/07/23 02:29:03;;;;;;;14.18;7.50;;;;;;;14.22;95.63;101817.13;4988270;28;20499;-87
2022/07/23 02:31:30;;;;;;;11.00;7.50;;;;;;;14.24;95.81;101815.34;4980566;28;20109;-87
2022/07/23 02:33:56;;;;;;;10.82;7.68;;;;;;;14.23;95.41;101817.09;4990867;28;20476;-87
2022/07/23 02:36:21;;;;;;;12.88;6.95;;;;;;;14.18;95.23;101818.94;4989593;28;20074;-87
2022/07/23 02:38:47;;;;;;;13.15;7.57;;;;;;;14.16;95.28;101820.72;4991898;28;20028;-87
2022/07/23 02:41:12;;;;;;;13.38;7.20;;;;;;;14.13;95.11;101823.41;4998378;28;20448;-87
2022/07/23 02:43:38;;;;;;;13.85;8.10;;;;;;;14.13;95.76;101817.31;5002608;28;20487;-87
2022/07/23 02:46:04;;;;;;;12.60;7.05;;;;;;;14.09;95.48;101816.53;4975531;28;20065;-87
2022/07/23 02:48:30;;;;;;;13.07;7.40;;;;;;;14.06;95.80;101829.63;4990024;28;20034;-87
2022/07/23 02:50:56;;;;;;;11.93;7.65;;;;;;;14.04;95.83;101822.75;4991820;28;20046;-87
2022/07/23 02:53:22;;;;;;;10.95;7.55;;;;;;;14.00;95.96;101821.94;4991652;28;20022;-87
2022/07/23 02:55:47;;;;;;;13.10;7.82;;;;;;;14.01;96.23;101828.88;4988225;28;20093;-87
2022/07/23 02:58:16;;;;;;;11.90;7.80;;;;;;;13.97;95.94;101831.59;4990900;28;20022;-87
2022/07/23 03:00:41;;;;;;;13.10;7.60;;;;;;;13.97;95.59;101829.84;4990454;28;20304;-87
2022/07/23 03:03:07;;;;;;;13.00;7.90;;;;;;;14.00;96.31;101829.78;4991577;28;20076;-87
2022/07/23 03:05:33;;;;;;;11.98;7.82;;;;;;;13.97;96.27;101826.41;4990724;28;20025;-87
2022/07/23 03:07:58;;;;;;;11.23;7.63;;;;;;;13.97;96.24;101835.06;4990804;28;20046;-87
2022/07/23 03:10:24;;;;;;;10.88;7.53;;;;;;;13.97;96.66;101837.69;4990421;28;20105;-87
2022/07/23 03:12:49;;;;;;;11.90;7.90;;;;;;;14.00;96.62;101831.53;4989171;28;20030;-86
2022/07/23 03:15:15;;;;;;;11.45;7.85;;;;;;;13.95;96.38;101834.25;4986767;28;20042;-87
2022/07/23 03:17:40;;;;;;;12.80;8.07;;;;;;;13.94;96.50;101844.69;4991314;28;20027;-87
2022/07/23 03:20:06;;;;;;;14.63;8.35;;;;;;;13.94;96.62;101840.34;4990294;28;20033;-86
2022/07/23 03:22:32;;;;;;;16.10;7.65;;;;;;;13.89;96.41;101839.59;4990368;28;20065;-87
2022/07/23 03:24:57;;;;;;;12.00;7.80;;;;;;;13.92;96.78;101847.31;4982208;28;20030;-87
2022/07/23 03:27:25;;;;;;;13.60;8.07;;;;;;;13.90;96.74;101843.91;4990711;28;20105;-87
2022/07/23 03:29:52;;;;;;;15.50;8.50;;;;;;;13.87;96.26;101849.19;4989070;28;20026;-87
2022/07/23 03:32:17;;;;;;;13.98;8.48;;;;;;;13.81;96.25;101841.50;4989376;28;20032;-86
2022/07/23 03:34:42;;;;;;;13.15;8.75;;;;;;;13.82;96.74;101848.44;4990291;28;20034;-87
2022/07/23 03:37:08;;;;;;;16.70;8.10;;;;;;;13.78;96.35;101849.41;4988932;28;20117;-87
2022/07/23 03:39:33;;;;;;;13.45;8.13;;;;;;;13.76;96.63;101849.41;4990575;28;20034;-87
2022/07/23 03:41:59;;;;;;;12.57;7.78;;;;;;;13.75;96.60;101844.22;4989664;28;20022;-87
2022/07/23 03:44:24;;;;;;;11.45;7.40;;;;;;;13.74;96.98;101847.72;4988894;28;20030;-87
2022/07/23 03:46:50;;;;;;;14.80;8.32;;;;;;;13.71;96.48;101846.06;4988951;28;20045;-87
2022/07/23 03:49:15;;;;;;;14.57;8.07;;;;;;;13.71;96.76;101845.19;4990610;28;20029;-87
2022/07/23 03:51:41;;;;;;;11.52;8.18;;;;;;;13.64;97.00;101844.47;4985466;28;20423;-87
2022/07/23 03:54:06;;;;;;;11.32;8.05;;;;;;;13.69;97.21;101852.19;4996684;28;20092;-87
2022/07/23 03:56:32;;;;;;;12.98;7.55;;;;;;;13.66;97.17;101850.47;4982385;28;20428;-87
2022/07/23 03:58:57;;;;;;;12.43;7.80;;;;;;;13.68;97.33;101851.31;4987034;28;20026;-87
2022/07/23 04:01:22;;;;;;;10.97;7.30;;;;;;;13.66;97.00;101847.88;4989491;28;20026;-88
2022/07/23 04:03:48;;;;;;;11.77;7.60;;;;;;;13.64;97.32;101843.59;4989369;28;20297;-87
2022/07/23 04:06:13;;;;;;;13.37;7.60;;;;;;;13.64;97.31;101846.22;4989395;28;20053;-87
2022/07/23 04:08:38;;;;;;;12.18;7.93;;;;;;;13.64;97.36;101849.69;4990218;28;20328;-87
2022/07/23 04:11:04;;;;;;;14.60;8.25;;;;;;;13.63;97.53;101853.16;4988753;28;20019;-87
2022/07/23 04:13:29;;;;;;;12.30;7.60;;;;;;;13.65;97.42;101860.94;4987038;28;20041;-87
2022/07/23 04:15:55;;;;;;;13.57;8.20;;;;;;;13.66;97.30;101858.28;4988406;28;20019;-87
2022/07/23 04:18:23;;;;;;;13.30;8.10;;;;;;;13.67;98.10;101851.34;4989819;28;20036;-87
2022/07/23 04:20:49;;;;;;;11.50;7.65;;;;;;;13.65;97.85;101855.72;4988792;28;20786;-87
2022/07/23 04:23:14;;;;;;;18.08;8.65;;;;;;;13.70;97.77;101859.13;4990306;28;20085;-87
2022/07/23 04:25:39;;;;;;;14.38;8.82;;;;;;;13.73;97.90;101861.63;4986656;28;20057;-87
2022/07/23 04:28:05;;;;;;;13.57;8.40;;;;;;;13.74;98.17;101856.41;4986068;28;20029;-87
2022/07/23 04:30:31;;;;;;;14.20;8.38;;;;;;;13.74;98.11;101858.16;4990203;28;20281;-87
2022/07/23 04:32:56;;;;;;;13.68;8.70;;;;;;;13.78;98.24;101862.44;4992020;28;20036;-87
2022/07/23 04:35:21;;;;;;;16.63;8.88;;;;;;;13.80;98.26;101860.63;4986244;28;20050;-88
2022/07/23 04:37:47;;;;;;;16.65;9.05;;;;;;;13.82;98.35;101869.28;4998473;28;20105;-87
2022/07/23 04:40:13;;;;;;;14.10;9.15;;;;;;;13.85;98.59;101874.44;4969334;28;20121;-89
2022/07/23 04:42:38;;;;;;;14.23;8.85;;;;;;;13.85;98.02;101874.44;4985830;28;20058;-89
2022/07/23 04:45:05;;;;;;;14.50;9.27;;;;;;;13.88;98.31;101879.56;4988934;28;20101;-89
2022/07/23 04:47:31;;;;;;;15.10;8.75;;;;;;;13.89;98.27;101876.09;4993565;28;20112;-89
2022/07/23 04:49:57;;;;;;;14.30;9.13;;;;;;;13.90;97.98;101871.72;4986630;28;20117;-89
2022/07/23 04:52:23;;;;;;;14.98;8.90;;;;;;;13.91;97.83;101874.31;4993826;28;20117;-89
2022/07/23 04:54:48;;;;;;;13.73;8.30;;;;;;;13.95;98.14;101880.31;4991774;28;20109;-89
2022/07/23 04:57:13;;;;;;;16.33;9.32;;;;;;;13.95;98.13;101881.16;4990380;28;20067;-89
2022/07/23 04:59:39;;;;;;;14.88;8.77;;;;;;;13.97;97.81;101882.00;4997302;28;20027;-89
2022/07/23 05:02:04;;;;;;;16.00;8.80;;;;;;;14.01;98.29;101886.25;4988459;28;20034;-90
2022/07/23 05:04:31;;;;;;;15.63;9.45;;;;;;;14.02;98.56;101882.75;4986785;28;20038;-89
2022/07/23 05:06:56;;;;;;;13.45;8.68;;;;;;;14.07;98.83;101883.50;4989131;28;20030;-89
2022/07/23 05:09:21;;;;;;;13.23;8.95;;;;;;;14.09;98.47;101881.72;4996516;28;20068;-87
2022/07/23 05:11:47;;;;;;;14.70;9.13;;;;;;;14.11;98.53;101887.78;4984678;28;20469;-87
2022/07/23 05:14:12;;;;;;;15.38;9.27;;;;;;;14.16;98.57;101885.06;4976374;28;20061;-86
2022/07/23 05:16:38;;;;;;;14.23;8.93;;;;;;;14.14;98.68;101890.31;4989229;28;20030;-87
2022/07/23 05:19:04;;;;;;;15.45;9.20;;;;;;;14.18;98.43;101885.91;4989408;28;20026;-87
2022/07/23 05:21:29;;;;;;;14.98;9.55;;;;;;;14.21;99.02;101886.66;4990654;28;20027;-87
2022/07/23 05:23:57;;;;;;;16.65;9.55;;;;;;;14.21;98.82;101894.50;4998505;28;20056;-87
2022/07/23 05:26:22;;;;;;;13.98;9.57;;;;;;;14.26;98.72;101894.41;4998040;28;20046;-87
2022/07/23 05:28:48;;;;;;;15.80;9.27;;;;;;;14.28;98.93;101891.75;4989192;28;20034;-87
2022/07/23 05:31:13;;;;;;;13.85;8.50;;;;;;;14.32;99.01;101902.09;4991737;28;20036;-87
2022/07/23 05:33:41;;;;;;;13.82;8.98;;;;;;;14.35;98.82;101901.16;4989098;28;20065;-87
2022/07/23 05:36:10;;;;;;;14.23;8.93;;;;;;;14.41;99.20;101907.13;4985460;28;20030;-87
2022/07/23 05:38:36;;;;;;;15.18;9.00;;;;;;;14.46;99.41;101907.03;4986677;28;20018;-87
2022/07/23 05:41:04;;;;;;;17.17;8.63;;;;;;;14.49;98.23;101910.41;4981249;28;20030;-87
2022/07/23 05:43:30;;;;;;;17.05;9.32;;;;;;;14.58;99.36;101906.75;4982008;28;20022;-87
2022/07/23 05:45:55;;;;;;;14.85;9.18;;;;;;;14.62;98.80;101904.03;4982617;28;20052;-86
2022/07/23 05:48:23;;;;;;;16.42;9.15;;;;;;;14.71;98.99;101904.72;4981695;28;20037;-87
2022/07/23 05:50:49;;;;;;;14.82;9.45;;;;;;;14.79;98.46;101908.84;4983486;28;20018;-87
2022/07/23 05:53:14;;;;;;;15.85;10.00;;;;;;;14.83;96.70;101912.25;4972565;28;20095;-87
2022/07/23 05:55:40;;;;;;;16.45;9.57;;;;;;;14.88;97.70;101911.22;4983603;28;20057;-87
2022/07/23 05:58:05;;;;;;;22.48;11.18;;;;;;;14.97;96.52;101916.22;4978312;28;20034;-87
2022/07/23 06:00:31;;;;;;;15.13;9.48;;;;;;;14.98;95.13;101912.72;4975920;28;20041;-87
2022/07/23 06:02:56;;;;;;;17.50;11.48;;;;;;;15.11;95.08;101915.88;4979543;28;20114;-87
2022/07/23 06:05:22;;;;;;;15.88;10.93;;;;;;;15.16;95.87;101910.53;4977005;28;20391;-87
2022/07/23 06:07:48;;;;;;;18.38;11.20;;;;;;;15.29;95.96;101925.00;4983400;28;20045;-88
2022/07/23 06:10:13;;;;;;;20.65;11.40;;;;;;;15.35;95.47;101922.25;4983484;28;20391;-89
2022/07/23 06:12:39;;;;;;;19.20;11.45;;;;;;;15.49;95.52;101932.34;4985201;28;20048;-89
2022/07/23 06:15:05;;;;;;;19.05;11.73;;;;;;;15.63;94.55;101938.91;4989448;28;20092;-89
2022/07/23 06:17:30;;;;;;;19.23;11.75;;;;;;;15.72;93.22;101925.59;4978844;28;20053;-89
2022/07/23 06:19:56;;;;;;;20.63;12.10;;;;;;;15.79;92.68;101932.38;4986125;28;20372;-89
2022/07/23 06:22:22;;;;;;;20.10;11.80;;;;;;;15.79;92.17;101931.53;4974574;28;20391;-88
2022/07/23 06:24:48;;;;;;;16.55;11.05;;;;;;;15.77;91.36;101930.69;4987587;28;20046;-89
2022/07/23 06:27:14;;;;;;;21.88;11.50;;;;;;;15.85;92.15;101922.66;4986339;28;20126;-89
2022/07/23 06:29:40;;;;;;;20.13;11.80;;;;;;;15.84;93.05;101919.16;4982754;28;20560;-89
2022/07/23 06:32:06;;;;;;;13.98;10.50;;;;;;;15.86;93.52;101925.22;4979652;28;20045;-89
2022/07/23 06:34:32;;;;;;;15.65;9.90;;;;;;;15.86;94.01;101933.06;4990064;28;20022;-89
2022/07/23 06:36:57;;;;;;;17.88;10.57;;;;;;;15.86;93.91;101932.22;4988763;28;20045;-89
2022/07/23 06:39:23;;;;;;;19.35;12.13;;;;;;;15.86;93.42;101926.97;4979282;28;20026;-87
2022/07/23 06:41:48;;;;;;;19.55;10.57;;;;;;;15.93;92.32;101938.97;4990168;28;20030;-87
2022/07/23 06:44:13;;;;;;;14.52;9.70;;;;;;;15.90;91.28;101932.06;4980614;28;20460;-87
2022/07/23 06:46:39;;;;;;;15.15;9.65;;;;;;;15.99;91.44;101944.91;4991366;28;20041;-86
2022/07/23 06:49:04;;;;;;;15.10;9.45;;;;;;;16.04;91.89;101944.75;4990390;28;20334;-87
2022/07/23 06:51:30;;;;;;;17.55;9.65;;;;;;;16.11;91.25;101943.66;4988686;28;20026;-87
2022/07/23 06:53:56;;;;;;;13.25;8.85;;;;;;;16.16;90.68;101947.91;4989809;28;20073;-87
2022/07/23 06:56:21;;;;;;;14.48;9.02;;;;;;;16.23;90.54;101945.97;4987904;28;20026;-87
2022/07/23 06:58:47;;;;;;;13.52;9.02;;;;;;;16.32;91.59;101935.19;4987283;28;20105;-87
2022/07/23 07:01:12;;;;;;;16.30;8.88;;;;;;;16.45;91.30;101938.28;4986306;28;20077;-86
2022/07/23 07:03:37;;;;;;;16.50;8.63;;;;;;;16.56;89.24;101941.47;4989945;28;20035;-86
2022/07/23 07:06:03;;;;;;;15.48;8.60;;;;;;;16.67;89.60;101939.38;4991520;28;20040;-87
2022/07/23 07:08:28;;;;;;;13.05;8.25;;;;;;;16.82;90.01;101944.16;4988804;28;20045;-87
2022/07/23 07:10:54;;;;;;;12.17;7.67;;;;;;;16.91;86.19;101945.63;4988696;28;20022;-86
2022/07/23 07:13:19;;;;;;;14.02;7.97;;;;;;;17.03;87.25;101947.84;4984763;28;20293;-86
2022/07/23 07:15:44;;;;;;;12.82;7.97;;;;;;;17.14;86.40;101945.69;4985493;28;20400;-86
2022/07/23 07:18:10;;;;;;;12.38;7.28;;;;;;;17.21;83.68;101944.59;4987705;28;20109;-86
2022/07/23 07:20:35;;;;;;;13.85;7.20;;;;;;;17.32;84.97;101950.34;4990585;28;20304;-86
2022/07/23 07:23:01;;;;;;;12.68;6.75;;;;;;;17.40;83.37;101950.06;4989819;28;20046;-86
2022/07/23 07:25:26;;;;;;;10.30;6.10;;;;;;;17.47;82.27;101938.44;4985520;28;20030;-86
2022/07/23 07:27:51;;;;;;;9.57;6.25;;;;;;;17.59;83.55;101935.44;4986803;28;20029;-86
2022/07/23 07:30:16;;;;;;;8.70;6.00;;;;;;;17.76;83.62;101940.94;4988144;28;20262;-86
2022/07/23 07:32:42;;;;;;;12.50;5.88;;;;;;;17.86;81.59;101930.13;4988090;28;20285;-86
2022/07/23 07:35:08;;;;;;;8.90;5.63;;;;;;;17.96;81.15;101934.97;4989732;28;20273;-86
2022/07/23 07:37:34;;;;;;;10.18;5.10;;;;;;;18.03;79.98;101940.84;4989355;28;20049;-86
2022/07/23 07:39:59;;;;;;;10.43;5.32;;;;;;;18.08;80.45;101945.00;4988731;28;20030;-86
2022/07/23 07:42:24;;;;;;;7.13;4.10;;;;;;;18.21;78.86;101947.19;4986337;28;20407;-86
2022/07/23 07:44:50;;;;;;;7.25;3.80;;;;;;;18.29;76.64;101950.34;4989301;28;20412;-86
2022/07/23 07:47:15;;;;;;;6.55;4.90;;;;;;;18.37;74.85;101957.03;4985477;28;20113;-86
2022/07/23 07:49:44;;;;;;;8.57;5.57;;;;;;;18.50;77.29;101962.66;4986912;28;20050;-86
2022/07/23 07:52:10;;;;;;;8.68;5.72;;;;;;;18.77;78.20;101953.72;4990087;28;20092;-86
2022/07/23 07:54:36;;;;;;;9.23;5.50;;;;;;;19.51;74.56;101957.72;5003235;28;20442;-86
2022/07/23 07:57:02;;;;;;;10.80;5.60;;;;;;;20.41;67.90;101946.59;4987658;28;20065;-87
2022/07/23 07:59:27;;;;;;;8.82;5.30;;;;;;;21.27;66.45;101949.44;4990302;28;20042;-86
2022/07/23 08:01:53;;;;;;;9.00;4.80;;;;;;;22.00;62.80;101950.03;4987130;28;20019;-86
2022/07/23 08:04:18;;;;;;;7.07;4.25;;;;;;;22.44;60.80;101953.75;4988820;28;20117;-86
2022/07/23 08:06:43;;;;;;;7.65;4.15;;;;;;;23.00;62.33;101954.13;4990119;28;20301;-87
2022/07/23 08:09:09;;;;;;;6.70;3.67;;;;;;;23.39;57.42;101949.16;4990793;28;20372;-87
2022/07/23 08:11:34;;;;;;;5.68;4.00;;;;;;;23.69;56.55;101949.13;4989229;28;20645;-86
2022/07/23 08:13:59;;;;;;;9.80;4.28;;;;;;;24.12;54.11;101954.41;4990662;28;20507;-87
2022/07/23 08:16:25;;;;;;;7.28;4.05;;;;;;;24.14;53.68;101957.84;4989373;28;20022;-86
2022/07/23 08:18:52;;;;;;;6.88;4.00;;;;;;;24.01;54.07;101961.25;4988744;28;20119;-86
2022/07/23 08:21:18;;;;;;;7.10;3.90;;;;;;;23.76;55.00;101965.50;4989021;28;20392;-86
2022/07/23 08:23:43;;;;;;;5.65;3.83;;;;;;;23.55;52.94;101962.34;4988724;28;20484;-87
2022/07/23 08:26:09;;;;;;;7.10;3.70;;;;;;;23.42;55.87;101970.13;4986615;28;20033;-86
2022/07/23 08:28:34;;;;;;;5.97;3.65;;;;;;;23.44;57.28;101965.63;4982808;28;20080;-86
2022/07/23 08:31:00;;;;;;;6.05;3.60;;;;;;;23.62;56.15;101974.28;4989381;28;20066;-86
2022/07/23 08:33:26;;;;;;;7.00;4.03;;;;;;;23.72;53.83;101970.13;4983903;28;20165;-87
2022/07/23 08:35:52;;;;;;;7.63;4.13;;;;;;;23.87;55.57;101974.50;4983097;28;20033;-86
2022/07/23 08:38:20;;;;;;;7.32;4.35;;;;;;;23.99;55.19;101978.19;4987951;28;20476;-87
2022/07/23 08:40:51;;;;;;;7.43;4.13;;;;;;;24.01;53.06;101976.31;4989538;28;20088;-87
2022/07/23 08:43:21;;;;;;;6.13;4.20;;;;;;;23.95;55.05;101974.03;4990027;28;20476;-86
2022/07/23 08:45:48;;;;;;;6.18;3.97;;;;;;;23.90;56.42;101984.03;4989021;28;20030;-86
2022/07/23 08:48:19;;;;;;;6.78;3.65;;;;;;;23.73;54.64;101971.84;4989373;28;20372;-86
2022/07/23 08:50:47;;;;;;;8.13;4.28;;;;;;;23.49;54.08;101975.94;4992285;28;20030;-87
2022/07/23 08:53:13;;;;;;;7.00;4.60;;;;;;;23.19;54.88;101981.25;4992651;28;20110;-87
2022/07/23 08:55:39;;;;;;;7.55;4.82;;;;;;;22.95;57.26;101985.28;5005544;28;20447;-86
2022/07/23 08:58:05;;;;;;;7.90;4.68;;;;;;;22.76;55.78;101989.00;4979579;28;20030;-87
2022/07/23 09:00:32;;;;;;;8.07;4.68;;;;;;;22.98;57.00;101985.13;4992350;28;20022;-86
2022/07/23 09:02:57;;;;;;;8.27;4.40;;;;;;;23.40;57.84;102001.16;4988744;28;20457;-86
2022/07/23 09:05:23;;;;;;;8.18;5.25;;;;;;;23.63;55.74;101983.91;4993292;28;20518;-86
2022/07/23 09:08:07;;;;;;;9.77;5.50;;;;;;;23.92;55.91;101987.44;4993910;28;20030;-87
2022/07/23 09:10:44;;;;;;;8.27;4.97;;;;;;;24.05;54.95;101988.41;4991670;28;20384;-86
2022/07/23 09:13:45;;;;;;;10.13;6.75;;;;;;;24.14;54.71;101985.19;4993538;28;20074;-86
2022/07/23 09:16:14;;;;;;;8.40;5.40;;;;;;;24.12;52.11;101984.41;4993497;28;20030;-86
2022/07/23 09:18:45;;;;;;;9.98;6.03;;;;;;;24.17;54.72;101982.31;4984289;28;20038;-86
2022/07/23 09:21:34;;;;;;;10.63;5.57;;;;;;;24.30;54.06;101987.75;4990624;28;20480;-86
2022/07/23 09:24:15;;;;;;;8.05;6.15;;;;;;;24.28;55.67;101968.44;4989058;28;20073;-86
2022/07/23 09:26:46;;;;;;;11.48;6.32;;;;;;;24.35;53.49;101964.47;4991148;28;20034;-86
2022/07/23 09:29:25;;;;;;;8.68;6.00;;;;;;;24.45;53.69;101967.38;4992674;28;20026;-86
2022/07/23 09:32:00;;;;;;;7.43;5.65;;;;;;;24.41;53.76;101969.38;4992103;28;20022;-86
2022/07/23 09:34:38;;;;;;;9.40;6.68;;;;;;;24.26;52.95;101959.75;4987562;28;20045;-87
2022/07/23 09:37:17;;;;;;;10.02;6.65;;;;;;;24.29;54.23;101965.69;4986809;28;20091;-86
2022/07/23 09:39:44;;;;;;;8.20;6.10;;;;;;;24.29;51.98;101970.97;4984008;28;20037;-86
2022/07/23 09:42:24;;;;;;;8.48;5.93;;;;;;;24.29;52.77;101968.34;4996233;28;20635;-86
2022/07/23 09:44:57;;;;;;;8.48;6.47;;;;;;;24.23;51.89;101974.03;4988202;28;20072;-86
2022/07/23 09:47:24;;;;;;;9.60;6.10;;;;;;;24.20;49.21;101968.06;4991423;28;20069;-86
2022/07/23 09:50:13;;;;;;;8.63;5.57;;;;;;;24.34;52.91;101968.91;4993181;28;20034;-87
2022/07/23 09:52:44;;;;;;;8.10;5.00;;;;;;;24.36;53.13;101976.78;4985179;28;20030;-86
2022/07/23 09:55:10;;;;;;;6.95;4.93;;;;;;;24.55;52.19;101981.75;4991003;28;20030;-86
2022/07/23 09:57:36;;;;;;;9.10;5.53;;;;;;;24.45;48.08;101980.63;4991619;28;20023;-86
2022/07/23 10:00:05;;;;;;;9.93;5.40;;;;;;;24.56;51.50;101979.00;4992767;28;20033;-86
2022/07/23 10:02:32;;;;;;;9.70;5.68;;;;;;;24.80;50.83;101976.56;4990316;28;20534;-86
2022/07/23 10:04:59;;;;;;;9.50;6.03;;;;;;;24.84;50.70;101977.22;4991033;28;20026;-86
2022/07/23 10:07:27;;;;;;;9.98;5.70;;;;;;;24.91;52.22;101979.38;4992462;28;20058;-86
2022/07/23 10:09:52;;;;;;;10.52;6.30;;;;;;;24.86;48.96;101978.81;4988864;28;20495;-86
2022/07/23 10:14:45;;;;;;;10.88;6.40;;;;;;;24.55;49.69;101976.44;4992573;28;20045;-86
2022/07/23 10:17:10;;;;;;;9.40;6.50;;;;;;;24.58;51.95;101978.88;4989994;28;20388;-86
2022/07/23 10:19:36;;;;;;;10.10;6.85;;;;;;;24.49;49.37;101972.41;4990400;28;20570;-86
2022/07/23 10:22:06;;;;;;;11.57;6.63;;;;;;;24.56;50.39;101979.00;4991481;28;20054;-86
2022/07/23 10:24:46;;;;;;;8.20;6.03;;;;;;;24.53;52.41;101970.38;4990970;28;20057;-86
2022/07/23 10:27:21;;;;;;;9.18;6.15;;;;;;;24.43;51.80;101972.75;4993419;28;20054;-87
2022/07/23 10:29:55;;;;;;;8.30;5.78;;;;;;;24.53;50.21;101978.34;4975550;28;20081;-86
2022/07/23 10:32:26;;;;;;;7.32;5.47;;;;;;;24.56;51.42;101972.84;4991187;28;20030;-87
2022/07/23 10:35:14;;;;;;;7.55;4.80;;;;;;;24.71;53.24;101974.47;4989285;28;20271;-86
2022/07/23 10:37:45;;;;;;;7.70;5.10;;;;;;;24.79;51.50;101978.34;4984175;28;20105;-86
2022/07/23 10:40:10;;;;;;;8.48;5.72;;;;;;;24.79;49.29;101980.16;4981812;28;20054;-86
2022/07/23 10:42:40;;;;;;;8.48;4.80;;;;;;;24.83;49.29;101972.84;4992426;28;20049;-86
2022/07/23 10:45:35;;;;;;;8.98;6.13;;;;;;;24.85;51.29;101974.44;4989525;28;20519;-86
2022/07/23 10:48:20;;;;;;;10.25;6.22;;;;;;;24.99;51.51;101978.88;4990095;28;20480;-86
2022/07/23 10:51:14;;;;;;;8.93;6.15;;;;;;;24.95;51.38;101978.25;5000098;28;20025;-86
2022/07/23 10:53:51;;;;;;;10.65;7.40;;;;;;;24.98;49.80;101974.50;4989500;28;20038;-86
2022/07/23 10:56:35;;;;;;;8.57;6.72;;;;;;;24.87;49.14;101977.00;4990559;28;20124;-86
2022/07/23 10:59:04;;;;;;;8.23;5.70;;;;;;;24.90;47.79;101971.53;4990326;28;20034;-86
2022/07/23 11:01:36;;;;;;;7.28;5.75;;;;;;;24.89;48.59;101973.31;4986723;28;20105;-86
2022/07/23 11:04:04;;;;;;;8.18;5.53;;;;;;;24.92;48.25;101970.47;4987171;28;20042;-85
2022/07/23 11:06:48;;;;;;;7.75;6.00;;;;;;;24.84;49.29;101969.25;4989326;28;20026;-87
2022/07/23 11:09:28;;;;;;;6.20;4.43;;;;;;;24.89;48.94;101975.97;4990490;28;20472;-86
2022/07/23 11:12:21;;;;;;;7.75;5.20;;;;;;;24.92;50.08;101981.06;4981898;28;20034;-87
2022/07/23 11:15:06;;;;;;;9.05;5.55;;;;;;;24.97;49.40;101978.16;4997065;28;20040;-86
2022/07/23 11:17:43;;;;;;;8.55;5.25;;;;;;;24.94;46.67;101976.53;4988903;28;20042;-86
2022/07/23 11:20:09;;;;;;;8.40;5.85;;;;;;;24.89;46.63;101981.25;4986638;28;20026;-86
2022/07/23 11:22:43;;;;;;;7.10;4.93;;;;;;;24.82;46.37;101968.50;4991154;28;20030;-86